KHSV

Huntsville International-Carl T Jones Field Airport

Huntsville, Alabama, USA
METAR KHSV 170253Z 33007KT 5SM -RA BR OVC005 14/13 A3021 RMK AO2 SLP227 P0001 60006 T01390133 53002
Observed Flight Rules
Oct-17 @ 02:53 UTC (52 minutes ago) Instrument Flight Rules
Wind Visibility Clouds Conditions
330° at 7 knots 5 miles
  • Overcast at 500' AGL
  • Light Rain
  • Mist
Temperatures Readings Precipitation
Current 14°C / 57°F
Dewpoint 13°C / 55°F
Humidity 94%
Altimeter 30.21" Hg
Pressure 1022.7 hPa
Elevation 191
Current Rain 0.01
METAR KHSV 170253Z 33007KT 5SM -RA BR OVC005 14/13 A3021 RMK AO2 SLP227 P0001 60006 T01390133 53002
Observed Flight Rules
Oct-17 @ 02:53 UTC
(52 minutes ago)
IFR
Wind Visibility
330° at 7 knots 5 miles
Clouds
  • Overcast at 500' AGL
Conditions
  • Light Rain
  • Mist
Temperature Dewpoint
14°C / 57°F 13°C / 55°F
Humidity Altimeter Pressure
94% 30.21" Hg 1022.7 hPa
Current Rain
0.01